<?xml version="1.0" encoding="UTF-8" standalone="no" ?>
<gpx xmlns="http://www.topografix.com/GPX/1/1" xmlns:xsi="http://www.w3.org/2001/XMLSchema-instance" xsi:schemaLocation="http://www.topografix.com/GPX/1/1 http://www.topografix.com/GPX/1/1/gpx.xsd" version="1.1" creator="VisuGPX - https://www.visugpx.com">
  <metadata>
    <name>2024-06-13-46-Prieuré de Laramière</name>
    <desc><![CDATA[belle randonnée dans les bois de Laramière de 12,5 km sans difficultés. Au départ du Prieuré de Laramière vers les dolmens de la région, vous foulerez de nombreux sentiers très souvent sous les bois à la rencontre des dolmens et des gariottes ]]></desc>
  </metadata>
  <wpt lat="44.3555" lon="1.87715">
    <ele>362.9</ele>
    <name><![CDATA[Parking du]]></name>
  </wpt>
  <wpt lat="44.35302" lon="1.87893">
    <ele>366.7</ele>
    <name><![CDATA[Place du village]]></name>
  </wpt>
  <wpt lat="44.34954" lon="1.87335">
    <ele>364.7</ele>
    <name><![CDATA[Départ de chemin à droite]]></name>
  </wpt>
  <wpt lat="44.34253" lon="1.85798">
    <ele>380.9</ele>
    <name><![CDATA[Petite route]]></name>
  </wpt>
  <wpt lat="44.34095" lon="1.85532">
    <ele>376.5</ele>
    <name><![CDATA[Départ de chemin à droite]]></name>
  </wpt>
  <wpt lat="44.35473" lon="1.84737">
    <ele>365</ele>
    <name><![CDATA[Croisement en T]]></name>
  </wpt>
  <wpt lat="44.35831" lon="1.83788">
    <ele>365.8</ele>
    <name><![CDATA[Caselle]]></name>
  </wpt>
  <wpt lat="44.36015" lon="1.83317">
    <ele>375.9</ele>
    <name><![CDATA[Croisement en T - GR36]]></name>
  </wpt>
  <wpt lat="44.36803" lon="1.84683">
    <ele>355</ele>
    <name><![CDATA[Départ de chemin]]></name>
  </wpt>
  <wpt lat="44.37476" lon="1.85864">
    <ele>355.2</ele>
    <name><![CDATA[Intersection]]></name>
  </wpt>
  <wpt lat="44.36892" lon="1.86717">
    <ele>353.1</ele>
    <name><![CDATA[Croisement en T]]></name>
  </wpt>
  <wpt lat="44.36384" lon="1.86586">
    <ele>359.1</ele>
    <name><![CDATA[Croisement - GR36]]></name>
  </wpt>
  <wpt lat="44.35747" lon="1.87522">
    <ele>370</ele>
    <name><![CDATA[Route]]></name>
  </wpt>
  <wpt lat="44.35562" lon="1.87711">
    <ele>363.2</ele>
    <name><![CDATA[Parking du]]></name>
  </wpt>
  <trk>
    <name><![CDATA[Du Prieuré de Laramière aux dolmens]]></name>
    <extensions>
      <line xmlns="http://www.topografix.com/GPX/gpx_style/0/2">
        <color>0000FF</color>
        <width>4</width>
      </line>
    </extensions>
    <trkseg>
      <trkpt lat="44.3555" lon="1.87715">
        <ele>366</ele>
        <time>2021-09-02T16:32:43+02:00</time>
      </trkpt>
      <trkpt lat="44.3554" lon="1.87676">
        <ele>366</ele>
      </trkpt>
      <trkpt lat="44.35455" lon="1.87701">
        <ele>363</ele>
      </trkpt>
      <trkpt lat="44.35339" lon="1.87764">
        <ele>368</ele>
      </trkpt>
      <trkpt lat="44.35313" lon="1.87802">
        <ele>368</ele>
      </trkpt>
      <trkpt lat="44.35302" lon="1.87893">
        <ele>367</ele>
        <time>2021-09-02T16:33:24+02:00</time>
      </trkpt>
      <trkpt lat="44.35261" lon="1.87877">
        <ele>367</ele>
      </trkpt>
      <trkpt lat="44.35222" lon="1.87857">
        <ele>367</ele>
        <time>2021-09-02T16:33:50+02:00</time>
      </trkpt>
      <trkpt lat="44.35176" lon="1.87834">
        <ele>367</ele>
        <time>2021-09-02T16:34:13+02:00</time>
      </trkpt>
      <trkpt lat="44.35148" lon="1.87781">
        <ele>368</ele>
        <time>2021-09-02T16:34:29+02:00</time>
      </trkpt>
      <trkpt lat="44.35111" lon="1.87738">
        <ele>369</ele>
        <time>2021-09-02T16:34:44+02:00</time>
      </trkpt>
      <trkpt lat="44.35075" lon="1.8769">
        <ele>369</ele>
        <time>2021-09-02T16:34:59+02:00</time>
      </trkpt>
      <trkpt lat="44.35046" lon="1.8764">
        <ele>364</ele>
        <time>2021-09-02T16:35:13+02:00</time>
      </trkpt>
      <trkpt lat="44.35021" lon="1.87518">
        <ele>362</ele>
        <time>2021-09-02T16:35:25+02:00</time>
      </trkpt>
      <trkpt lat="44.34999" lon="1.87388">
        <ele>364</ele>
        <time>2021-09-02T16:35:49+02:00</time>
      </trkpt>
      <trkpt lat="44.34954" lon="1.87335">
        <ele>364</ele>
        <time>2021-09-02T16:36:12+02:00</time>
      </trkpt>
      <trkpt lat="44.34937" lon="1.87249">
        <ele>368</ele>
        <time>2021-09-02T16:38:42+02:00</time>
      </trkpt>
      <trkpt lat="44.34917" lon="1.87227">
        <ele>369</ele>
        <time>2021-09-02T16:38:51+02:00</time>
      </trkpt>
      <trkpt lat="44.34899" lon="1.87189">
        <ele>370</ele>
      </trkpt>
      <trkpt lat="44.34893" lon="1.87125">
        <ele>369</ele>
        <time>2021-09-02T16:39:23+02:00</time>
      </trkpt>
      <trkpt lat="44.34876" lon="1.86949">
        <ele>368</ele>
        <time>2021-09-02T16:39:54+02:00</time>
      </trkpt>
      <trkpt lat="44.34878" lon="1.86875">
        <ele>367</ele>
        <time>2021-09-02T16:40:00+02:00</time>
      </trkpt>
      <trkpt lat="44.34863" lon="1.86755">
        <ele>370</ele>
        <time>2021-09-02T16:40:33+02:00</time>
      </trkpt>
      <trkpt lat="44.34846" lon="1.86708">
        <ele>371</ele>
        <time>2021-09-02T16:42:35+02:00</time>
      </trkpt>
      <trkpt lat="44.34811" lon="1.86673">
        <ele>372</ele>
        <time>2021-09-02T16:42:52+02:00</time>
      </trkpt>
      <trkpt lat="44.34787" lon="1.86659">
        <ele>371</ele>
        <time>2021-09-02T16:43:01+02:00</time>
      </trkpt>
      <trkpt lat="44.3474" lon="1.86654">
        <ele>370</ele>
        <time>2021-09-02T16:43:20+02:00</time>
      </trkpt>
      <trkpt lat="44.34704" lon="1.86641">
        <ele>368</ele>
        <time>2021-09-02T16:43:29+02:00</time>
      </trkpt>
      <trkpt lat="44.34675" lon="1.8661">
        <ele>366</ele>
        <time>2021-09-02T16:43:47+02:00</time>
      </trkpt>
      <trkpt lat="44.34641" lon="1.86572">
        <ele>367</ele>
        <time>2021-09-02T16:44:15+02:00</time>
      </trkpt>
      <trkpt lat="44.34604" lon="1.86479">
        <ele>372</ele>
        <time>2021-09-02T16:46:36+02:00</time>
      </trkpt>
      <trkpt lat="44.34563" lon="1.86401">
        <ele>374</ele>
        <time>2021-09-02T16:46:56+02:00</time>
      </trkpt>
      <trkpt lat="44.345" lon="1.86254">
        <ele>377</ele>
        <time>2021-09-02T16:47:47+02:00</time>
      </trkpt>
      <trkpt lat="44.34452" lon="1.86146">
        <ele>380</ele>
        <time>2021-09-02T16:48:20+02:00</time>
      </trkpt>
      <trkpt lat="44.34421" lon="1.86081">
        <ele>381</ele>
        <time>2021-09-02T16:48:28+02:00</time>
      </trkpt>
      <trkpt lat="44.34384" lon="1.86008">
        <ele>381</ele>
        <time>2021-09-02T16:49:00+02:00</time>
      </trkpt>
      <trkpt lat="44.34332" lon="1.85932">
        <ele>378</ele>
        <time>2021-09-02T16:49:22+02:00</time>
      </trkpt>
      <trkpt lat="44.34253" lon="1.85798">
        <ele>381</ele>
        <time>2021-09-02T16:50:01+02:00</time>
      </trkpt>
      <trkpt lat="44.3424" lon="1.85739">
        <ele>382</ele>
      </trkpt>
      <trkpt lat="44.34188" lon="1.85659">
        <ele>383</ele>
      </trkpt>
      <trkpt lat="44.34121" lon="1.85582">
        <ele>380</ele>
        <time>2021-09-02T16:53:21+02:00</time>
      </trkpt>
      <trkpt lat="44.34095" lon="1.85532">
        <ele>380</ele>
        <time>2021-09-02T16:53:31+02:00</time>
      </trkpt>
      <trkpt lat="44.34218" lon="1.85375">
        <ele>383</ele>
        <time>2021-09-02T16:55:48+02:00</time>
      </trkpt>
      <trkpt lat="44.34293" lon="1.85287">
        <ele>384</ele>
        <time>2021-09-02T16:56:20+02:00</time>
      </trkpt>
      <trkpt lat="44.34319" lon="1.85252">
        <ele>385</ele>
        <time>2021-09-02T16:56:28+02:00</time>
      </trkpt>
      <trkpt lat="44.34279" lon="1.85184">
        <ele>382</ele>
        <time>2021-09-02T16:57:11+02:00</time>
      </trkpt>
      <trkpt lat="44.34321" lon="1.8525">
        <ele>385</ele>
        <time>2021-09-02T16:59:47+02:00</time>
      </trkpt>
      <trkpt lat="44.34386" lon="1.85166">
        <ele>379</ele>
        <time>2021-09-02T17:00:24+02:00</time>
      </trkpt>
      <trkpt lat="44.3442" lon="1.85121">
        <ele>380</ele>
        <time>2021-09-02T17:00:38+02:00</time>
      </trkpt>
      <trkpt lat="44.34489" lon="1.85031">
        <ele>381</ele>
        <time>2021-09-02T17:01:10+02:00</time>
      </trkpt>
      <trkpt lat="44.34587" lon="1.84907">
        <ele>382</ele>
        <time>2021-09-02T17:01:56+02:00</time>
      </trkpt>
      <trkpt lat="44.34716" lon="1.84767">
        <ele>386</ele>
        <time>2021-09-02T17:02:54+02:00</time>
      </trkpt>
      <trkpt lat="44.34858" lon="1.84609">
        <ele>382</ele>
        <time>2021-09-02T17:03:47+02:00</time>
      </trkpt>
      <trkpt lat="44.34875" lon="1.84588">
        <ele>382</ele>
        <time>2021-09-02T17:03:54+02:00</time>
      </trkpt>
      <trkpt lat="44.34904" lon="1.84557">
        <ele>381</ele>
        <time>2021-09-02T17:04:03+02:00</time>
      </trkpt>
      <trkpt lat="44.34964" lon="1.84489">
        <ele>381</ele>
        <time>2021-09-02T17:04:11+02:00</time>
      </trkpt>
      <trkpt lat="44.35023" lon="1.84432">
        <ele>379</ele>
      </trkpt>
      <trkpt lat="44.35062" lon="1.84408">
        <ele>378</ele>
      </trkpt>
      <trkpt lat="44.35098" lon="1.84388">
        <ele>377</ele>
        <time>2021-09-02T17:15:16+02:00</time>
      </trkpt>
      <trkpt lat="44.35162" lon="1.84451">
        <ele>375</ele>
        <time>2021-09-02T17:15:53+02:00</time>
      </trkpt>
      <trkpt lat="44.35202" lon="1.84488">
        <ele>375</ele>
        <time>2021-09-02T17:16:11+02:00</time>
      </trkpt>
      <trkpt lat="44.35338" lon="1.84615">
        <ele>376</ele>
        <time>2021-09-02T17:17:14+02:00</time>
      </trkpt>
      <trkpt lat="44.3544" lon="1.84706">
        <ele>370</ele>
        <time>2021-09-02T17:17:59+02:00</time>
      </trkpt>
      <trkpt lat="44.35473" lon="1.84737">
        <ele>370</ele>
        <time>2021-09-02T17:18:07+02:00</time>
      </trkpt>
      <trkpt lat="44.35503" lon="1.84654">
        <ele>370</ele>
        <time>2021-09-02T17:20:31+02:00</time>
      </trkpt>
      <trkpt lat="44.35525" lon="1.84595">
        <ele>370</ele>
        <time>2021-09-02T17:20:48+02:00</time>
      </trkpt>
      <trkpt lat="44.35554" lon="1.8451">
        <ele>368</ele>
        <time>2021-09-02T17:21:04+02:00</time>
      </trkpt>
      <trkpt lat="44.3553" lon="1.84513">
        <ele>368</ele>
        <time>2021-09-02T17:21:38+02:00</time>
      </trkpt>
      <trkpt lat="44.35553" lon="1.8451">
        <ele>368</ele>
        <time>2021-09-02T17:23:18+02:00</time>
      </trkpt>
      <trkpt lat="44.35598" lon="1.84393">
        <ele>367</ele>
        <time>2021-09-02T17:23:52+02:00</time>
      </trkpt>
      <trkpt lat="44.35626" lon="1.84325">
        <ele>366</ele>
        <time>2021-09-02T17:24:06+02:00</time>
      </trkpt>
      <trkpt lat="44.3567" lon="1.84212">
        <ele>365</ele>
        <time>2021-09-02T17:24:39+02:00</time>
      </trkpt>
      <trkpt lat="44.35705" lon="1.84126">
        <ele>363</ele>
        <time>2021-09-02T17:25:00+02:00</time>
      </trkpt>
      <trkpt lat="44.35728" lon="1.84059">
        <ele>364</ele>
        <time>2021-09-02T17:25:16+02:00</time>
      </trkpt>
      <trkpt lat="44.3583" lon="1.83788">
        <ele>370</ele>
        <time>2021-09-02T17:29:13+02:00</time>
      </trkpt>
      <trkpt lat="44.35868" lon="1.8381">
        <ele>370</ele>
        <time>2021-09-02T17:30:30+02:00</time>
      </trkpt>
      <trkpt lat="44.35831" lon="1.83788">
        <ele>370</ele>
        <time>2021-09-02T17:32:54+02:00</time>
      </trkpt>
      <trkpt lat="44.35857" lon="1.83722">
        <ele>373</ele>
        <time>2021-09-02T17:34:24+02:00</time>
      </trkpt>
      <trkpt lat="44.35871" lon="1.83686">
        <ele>374</ele>
        <time>2021-09-02T17:34:34+02:00</time>
      </trkpt>
      <trkpt lat="44.35889" lon="1.8364">
        <ele>377</ele>
        <time>2021-09-02T17:34:53+02:00</time>
      </trkpt>
      <trkpt lat="44.35933" lon="1.83523">
        <ele>381</ele>
        <time>2021-09-02T17:35:31+02:00</time>
      </trkpt>
      <trkpt lat="44.35988" lon="1.83381">
        <ele>382</ele>
        <time>2021-09-02T17:36:24+02:00</time>
      </trkpt>
      <trkpt lat="44.36015" lon="1.83317">
        <ele>381</ele>
        <time>2021-09-02T17:36:34+02:00</time>
      </trkpt>
      <trkpt lat="44.36033" lon="1.83345">
        <ele>380</ele>
        <time>2021-09-02T17:39:05+02:00</time>
      </trkpt>
      <trkpt lat="44.3609" lon="1.83454">
        <ele>379</ele>
        <time>2021-09-02T17:39:36+02:00</time>
      </trkpt>
      <trkpt lat="44.36121" lon="1.83517">
        <ele>378</ele>
        <time>2021-09-02T17:39:49+02:00</time>
      </trkpt>
      <trkpt lat="44.36175" lon="1.83627">
        <ele>376</ele>
        <time>2021-09-02T17:49:55+02:00</time>
      </trkpt>
      <trkpt lat="44.36192" lon="1.83656">
        <ele>375</ele>
        <time>2021-09-02T17:50:01+02:00</time>
      </trkpt>
      <trkpt lat="44.36238" lon="1.83726">
        <ele>373</ele>
        <time>2021-09-02T17:50:16+02:00</time>
      </trkpt>
      <trkpt lat="44.3627" lon="1.83795">
        <ele>368</ele>
        <time>2021-09-02T17:50:24+02:00</time>
      </trkpt>
      <trkpt lat="44.36304" lon="1.83853">
        <ele>365</ele>
      </trkpt>
      <trkpt lat="44.36333" lon="1.83908">
        <ele>362</ele>
        <time>2021-09-02T17:50:38+02:00</time>
      </trkpt>
      <trkpt lat="44.36363" lon="1.83963">
        <ele>361</ele>
        <time>2021-09-02T17:50:46+02:00</time>
      </trkpt>
      <trkpt lat="44.36393" lon="1.84015">
        <ele>361</ele>
        <time>2021-09-02T17:50:55+02:00</time>
      </trkpt>
      <trkpt lat="44.36424" lon="1.84072">
        <ele>362</ele>
        <time>2021-09-02T17:51:07+02:00</time>
      </trkpt>
      <trkpt lat="44.36475" lon="1.84164">
        <ele>360</ele>
        <time>2021-09-02T17:51:23+02:00</time>
      </trkpt>
      <trkpt lat="44.36511" lon="1.84228">
        <ele>357</ele>
        <time>2021-09-02T17:51:39+02:00</time>
      </trkpt>
      <trkpt lat="44.36589" lon="1.84377">
        <ele>359</ele>
        <time>2021-09-02T17:52:07+02:00</time>
      </trkpt>
      <trkpt lat="44.36619" lon="1.84434">
        <ele>355</ele>
        <time>2021-09-02T17:52:20+02:00</time>
      </trkpt>
      <trkpt lat="44.36623" lon="1.84462">
        <ele>354</ele>
      </trkpt>
      <trkpt lat="44.36656" lon="1.8452">
        <ele>352</ele>
        <time>2021-09-02T17:52:30+02:00</time>
      </trkpt>
      <trkpt lat="44.36685" lon="1.84551">
        <ele>350</ele>
        <time>2021-09-02T17:52:38+02:00</time>
      </trkpt>
      <trkpt lat="44.36701" lon="1.84579">
        <ele>350</ele>
        <time>2021-09-02T17:52:42+02:00</time>
      </trkpt>
      <trkpt lat="44.36735" lon="1.84625">
        <ele>352</ele>
        <time>2021-09-02T17:52:54+02:00</time>
      </trkpt>
      <trkpt lat="44.36756" lon="1.84643">
        <ele>354</ele>
        <time>2021-09-02T17:53:02+02:00</time>
      </trkpt>
      <trkpt lat="44.36768" lon="1.84652">
        <ele>355</ele>
        <time>2021-09-02T17:55:04+02:00</time>
      </trkpt>
      <trkpt lat="44.36803" lon="1.84683">
        <ele>359</ele>
        <time>2021-09-02T17:55:17+02:00</time>
      </trkpt>
      <trkpt lat="44.36818" lon="1.8469">
        <ele>360</ele>
        <time>2021-09-02T17:55:27+02:00</time>
      </trkpt>
      <trkpt lat="44.36843" lon="1.8471">
        <ele>362</ele>
        <time>2021-09-02T17:55:38+02:00</time>
      </trkpt>
      <trkpt lat="44.36855" lon="1.84743">
        <ele>363</ele>
        <time>2021-09-02T17:56:05+02:00</time>
      </trkpt>
      <trkpt lat="44.36868" lon="1.84794">
        <ele>365</ele>
        <time>2021-09-02T17:56:14+02:00</time>
      </trkpt>
      <trkpt lat="44.36872" lon="1.84848">
        <ele>366</ele>
        <time>2021-09-02T17:56:23+02:00</time>
      </trkpt>
      <trkpt lat="44.36872" lon="1.84885">
        <ele>367</ele>
        <time>2021-09-02T17:56:30+02:00</time>
      </trkpt>
      <trkpt lat="44.36876" lon="1.84913">
        <ele>367</ele>
        <time>2021-09-02T17:56:37+02:00</time>
      </trkpt>
      <trkpt lat="44.36895" lon="1.84944">
        <ele>366</ele>
        <time>2021-09-02T17:56:42+02:00</time>
      </trkpt>
      <trkpt lat="44.36916" lon="1.84966">
        <ele>365</ele>
        <time>2021-09-02T17:56:48+02:00</time>
      </trkpt>
      <trkpt lat="44.36941" lon="1.84989">
        <ele>365</ele>
        <time>2021-09-02T17:56:55+02:00</time>
      </trkpt>
      <trkpt lat="44.36979" lon="1.85059">
        <ele>367</ele>
        <time>2021-09-02T17:57:16+02:00</time>
      </trkpt>
      <trkpt lat="44.36993" lon="1.85086">
        <ele>367</ele>
        <time>2021-09-02T17:57:22+02:00</time>
      </trkpt>
      <trkpt lat="44.37045" lon="1.85159">
        <ele>361</ele>
        <time>2021-09-02T17:57:39+02:00</time>
      </trkpt>
      <trkpt lat="44.37073" lon="1.85188">
        <ele>360</ele>
        <time>2021-09-02T17:57:43+02:00</time>
      </trkpt>
      <trkpt lat="44.37091" lon="1.85195">
        <ele>359</ele>
        <time>2021-09-02T17:57:50+02:00</time>
      </trkpt>
      <trkpt lat="44.37126" lon="1.85227">
        <ele>356</ele>
        <time>2021-09-02T17:58:25+02:00</time>
      </trkpt>
      <trkpt lat="44.37142" lon="1.85242">
        <ele>355</ele>
        <time>2021-09-02T17:58:30+02:00</time>
      </trkpt>
      <trkpt lat="44.37192" lon="1.85277">
        <ele>352</ele>
        <time>2021-09-02T17:58:35+02:00</time>
      </trkpt>
      <trkpt lat="44.37212" lon="1.85295">
        <ele>351</ele>
        <time>2021-09-02T17:58:43+02:00</time>
      </trkpt>
      <trkpt lat="44.37233" lon="1.8533">
        <ele>351</ele>
        <time>2021-09-02T17:58:55+02:00</time>
      </trkpt>
      <trkpt lat="44.37259" lon="1.85396">
        <ele>353</ele>
        <time>2021-09-02T17:59:02+02:00</time>
      </trkpt>
      <trkpt lat="44.37275" lon="1.85461">
        <ele>355</ele>
        <time>2021-09-02T17:59:15+02:00</time>
      </trkpt>
      <trkpt lat="44.37292" lon="1.85516">
        <ele>356</ele>
        <time>2021-09-02T17:59:28+02:00</time>
      </trkpt>
      <trkpt lat="44.37326" lon="1.85608">
        <ele>355</ele>
        <time>2021-09-02T17:59:46+02:00</time>
      </trkpt>
      <trkpt lat="44.3735" lon="1.8568">
        <ele>358</ele>
        <time>2021-09-02T17:59:58+02:00</time>
      </trkpt>
      <trkpt lat="44.37375" lon="1.85749">
        <ele>360</ele>
      </trkpt>
      <trkpt lat="44.37388" lon="1.85768">
        <ele>360</ele>
        <time>2021-09-02T18:00:23+02:00</time>
      </trkpt>
      <trkpt lat="44.37414" lon="1.858">
        <ele>358</ele>
        <time>2021-09-02T18:00:36+02:00</time>
      </trkpt>
      <trkpt lat="44.37457" lon="1.85843">
        <ele>358</ele>
        <time>2021-09-02T18:00:48+02:00</time>
      </trkpt>
      <trkpt lat="44.37476" lon="1.85864">
        <ele>358</ele>
        <time>2021-09-02T18:00:55+02:00</time>
      </trkpt>
      <trkpt lat="44.37467" lon="1.8593">
        <ele>359</ele>
        <time>2021-09-02T18:03:09+02:00</time>
      </trkpt>
      <trkpt lat="44.37454" lon="1.85985">
        <ele>359</ele>
        <time>2021-09-02T18:03:16+02:00</time>
      </trkpt>
      <trkpt lat="44.37451" lon="1.86014">
        <ele>358</ele>
        <time>2021-09-02T18:03:22+02:00</time>
      </trkpt>
      <trkpt lat="44.37452" lon="1.86029">
        <ele>357</ele>
        <time>2021-09-02T18:03:27+02:00</time>
      </trkpt>
      <trkpt lat="44.37458" lon="1.86055">
        <ele>357</ele>
        <time>2021-09-02T18:03:33+02:00</time>
      </trkpt>
      <trkpt lat="44.37465" lon="1.86072">
        <ele>356</ele>
        <time>2021-09-02T18:03:45+02:00</time>
      </trkpt>
      <trkpt lat="44.37417" lon="1.86145">
        <ele>352</ele>
        <time>2021-09-02T18:04:15+02:00</time>
      </trkpt>
      <trkpt lat="44.37385" lon="1.86198">
        <ele>349</ele>
        <time>2021-09-02T18:04:23+02:00</time>
      </trkpt>
      <trkpt lat="44.37303" lon="1.8634">
        <ele>348</ele>
        <time>2021-09-02T18:04:45+02:00</time>
      </trkpt>
      <trkpt lat="44.37277" lon="1.86393">
        <ele>351</ele>
        <time>2021-09-02T18:04:50+02:00</time>
      </trkpt>
      <trkpt lat="44.37258" lon="1.86425">
        <ele>353</ele>
        <time>2021-09-02T18:05:03+02:00</time>
      </trkpt>
      <trkpt lat="44.37226" lon="1.86475">
        <ele>353</ele>
        <time>2021-09-02T18:05:17+02:00</time>
      </trkpt>
      <trkpt lat="44.3719" lon="1.86516">
        <ele>354</ele>
        <time>2021-09-02T18:05:28+02:00</time>
      </trkpt>
      <trkpt lat="44.37148" lon="1.86559">
        <ele>353</ele>
        <time>2021-09-02T18:05:39+02:00</time>
      </trkpt>
      <trkpt lat="44.371" lon="1.86611">
        <ele>354</ele>
        <time>2021-09-02T18:05:44+02:00</time>
      </trkpt>
      <trkpt lat="44.37076" lon="1.86641">
        <ele>354</ele>
        <time>2021-09-02T18:06:02+02:00</time>
      </trkpt>
      <trkpt lat="44.37056" lon="1.86665">
        <ele>353</ele>
        <time>2021-09-02T18:06:08+02:00</time>
      </trkpt>
      <trkpt lat="44.37039" lon="1.86673">
        <ele>354</ele>
        <time>2021-09-02T18:06:14+02:00</time>
      </trkpt>
      <trkpt lat="44.36985" lon="1.86694">
        <ele>354</ele>
        <time>2021-09-02T18:06:24+02:00</time>
      </trkpt>
      <trkpt lat="44.36941" lon="1.86707">
        <ele>354</ele>
      </trkpt>
      <trkpt lat="44.36892" lon="1.86717">
        <ele>353</ele>
        <time>2021-09-02T18:06:40+02:00</time>
      </trkpt>
      <trkpt lat="44.36895" lon="1.86663">
        <ele>353</ele>
        <time>2021-09-02T18:07:38+02:00</time>
      </trkpt>
      <trkpt lat="44.36901" lon="1.8663">
        <ele>352</ele>
        <time>2021-09-02T18:07:51+02:00</time>
      </trkpt>
      <trkpt lat="44.36891" lon="1.86598">
        <ele>351</ele>
        <time>2021-09-02T18:07:56+02:00</time>
      </trkpt>
      <trkpt lat="44.36895" lon="1.86469">
        <ele>352</ele>
      </trkpt>
      <trkpt lat="44.3689" lon="1.86352">
        <ele>352</ele>
        <time>2021-09-02T18:08:40+02:00</time>
      </trkpt>
      <trkpt lat="44.36864" lon="1.86256">
        <ele>348</ele>
        <time>2021-09-02T18:09:30+02:00</time>
      </trkpt>
      <trkpt lat="44.36835" lon="1.86199">
        <ele>348</ele>
        <time>2021-09-02T18:09:44+02:00</time>
      </trkpt>
      <trkpt lat="44.36739" lon="1.86114">
        <ele>352</ele>
        <time>2021-09-02T18:10:20+02:00</time>
      </trkpt>
      <trkpt lat="44.36675" lon="1.86175">
        <ele>354</ele>
      </trkpt>
      <trkpt lat="44.36616" lon="1.86245">
        <ele>357</ele>
        <time>2021-09-02T18:10:57+02:00</time>
      </trkpt>
      <trkpt lat="44.36591" lon="1.86244">
        <ele>358</ele>
        <time>2021-09-02T18:11:04+02:00</time>
      </trkpt>
      <trkpt lat="44.36546" lon="1.86307">
        <ele>360</ele>
        <time>2021-09-02T18:11:17+02:00</time>
      </trkpt>
      <trkpt lat="44.36509" lon="1.86347">
        <ele>361</ele>
        <time>2021-09-02T18:11:22+02:00</time>
      </trkpt>
      <trkpt lat="44.36457" lon="1.86431">
        <ele>363</ele>
        <time>2021-09-02T18:11:47+02:00</time>
      </trkpt>
      <trkpt lat="44.36403" lon="1.86528">
        <ele>364</ele>
        <time>2021-09-02T18:11:52+02:00</time>
      </trkpt>
      <trkpt lat="44.36382" lon="1.86567">
        <ele>363</ele>
        <time>2021-09-02T18:12:00+02:00</time>
      </trkpt>
      <trkpt lat="44.36384" lon="1.86586">
        <ele>363</ele>
        <time>2021-09-02T18:12:10+02:00</time>
      </trkpt>
      <trkpt lat="44.36323" lon="1.86696">
        <ele>359</ele>
      </trkpt>
      <trkpt lat="44.36276" lon="1.86779">
        <ele>359</ele>
      </trkpt>
      <trkpt lat="44.36263" lon="1.86808">
        <ele>360</ele>
      </trkpt>
      <trkpt lat="44.36239" lon="1.86838">
        <ele>361</ele>
      </trkpt>
      <trkpt lat="44.36208" lon="1.86876">
        <ele>360</ele>
      </trkpt>
      <trkpt lat="44.36123" lon="1.87">
        <ele>357</ele>
      </trkpt>
      <trkpt lat="44.36046" lon="1.87182">
        <ele>359</ele>
      </trkpt>
      <trkpt lat="44.35963" lon="1.87263">
        <ele>363</ele>
      </trkpt>
      <trkpt lat="44.35908" lon="1.8732">
        <ele>366</ele>
      </trkpt>
      <trkpt lat="44.35856" lon="1.87381">
        <ele>367</ele>
      </trkpt>
      <trkpt lat="44.35747" lon="1.87522">
        <ele>371</ele>
        <time>2021-09-02T18:31:01+02:00</time>
      </trkpt>
      <trkpt lat="44.35759" lon="1.8755">
        <ele>371</ele>
        <time>2021-09-02T18:31:59+02:00</time>
      </trkpt>
      <trkpt lat="44.35719" lon="1.87587">
        <ele>372</ele>
        <time>2021-09-02T18:32:06+02:00</time>
      </trkpt>
      <trkpt lat="44.35666" lon="1.87619">
        <ele>372</ele>
        <time>2021-09-02T18:32:12+02:00</time>
      </trkpt>
      <trkpt lat="44.35643" lon="1.8763">
        <ele>371</ele>
        <time>2021-09-02T18:32:17+02:00</time>
      </trkpt>
      <trkpt lat="44.35621" lon="1.8764">
        <ele>370</ele>
        <time>2021-09-02T18:32:21+02:00</time>
      </trkpt>
      <trkpt lat="44.35593" lon="1.87652">
        <ele>369</ele>
        <time>2021-09-02T18:32:25+02:00</time>
      </trkpt>
      <trkpt lat="44.35551" lon="1.87671">
        <ele>366</ele>
        <time>2021-09-02T18:32:29+02:00</time>
      </trkpt>
      <trkpt lat="44.35562" lon="1.87711">
        <ele>366</ele>
        <time>2021-09-02T18:32:37+02:00</time>
      </trkpt>
    </trkseg>
  </trk>
</gpx>